Main page
METAR-TAF:

METAR-TAF

Airports :

Ghriss Airport

Ghriss, Algeria

latitude: 35-12N, longitude: 000-08E, elevation: 514 m

Current weather observation

The report was made 51 minutes ago, at 21:00 UTC
Wind 5 kt from the South/Southeast
Temperature 9°C
Humidity 93%
Pressure 1025 hPa
Visibility 10 km or more
no clouds below 1500 m and no cumulonimbus

METAR: DAOV 102100Z 16005KT CAVOK 09/08 Q1025

Time: 22:51 (21:51 UTC)

Forecast

The report was made 1 hour and 51 minutes ago, at 20:00 UTC
Forecast valid from 10 at 21 UTC to 11 at 06 UTC
Wind 2 kt from variable directions
Visibility 10 km or more
Few clouds at a height of 2600 ft
Probability 40% :
Temporary
from 10 at 22 UTC to 11 at 02 UTC
Visibility: 4000 m
Scattered clouds at a height of 1000 ft
mist

TAF: DAOV 102000Z 1021/1106 VRB02KT 9999 FEW026 PROB40 TEMPO 1022/1102 4000 BR SCT010

Weather observations and forecasts of more than 4000 airports (METAR and TAF reports).

The available stations are represented by yellow and red dots on the map.

Hover mouse over dot to see the name of the station.

Then click to see weather observations and forecasts.

To change the map : click on the green buttons with a black cross to zoom in, on the green button with a dash to zoom out, or on the green arrows for adjacent maps.


METAR-TAF: